This is the latest recevied weather packets stored in our database for station/object YM2KRB-11. If no packets are shown the sender has not sent any weather packets the latest 10 day(s).
| Time | Temp. | Humidity | Pressure | Rain* | Wind** | Luminosity | Snow |
|---|---|---|---|---|---|---|---|
| 1777764101 | 11.67° C | 54% | 939.8 hPa | - | - | - | - |
| 1777760499 | 11.67° C | 54% | 940.4 hPa | - | - | - | - |
| 1777756896 | 10.56° C | 58% | 941 hPa | - | - | - | - |
| 1777755696 | 10.56° C | 57% | 940.8 hPa | - | - | - | - |
| 1777752093 | 11.11° C | 56% | 941.2 hPa | - | - | - | - |
| 1777749692 | 11.67° C | 55% | 941.2 hPa | - | - | - | - |
| 1777748491 | 13.33° C | 53% | 941.3 hPa | - | - | - | - |
| 1777744889 | 13.33° C | 53% | 940.9 hPa | - | - | - | - |
| 1777738885 | 12.78° C | 52% | 940.5 hPa | - | - | - | - |
| 1777737684 | 12.78° C | 52% | 940.2 hPa | - | - | - | - |
| 1777736483 | 13.33° C | 51% | 940.7 hPa | - | - | - | - |
| 1777735282 | 12.22° C | 53% | 940.5 hPa | - | - | - | - |
| 1777734081 | 13.89° C | 50% | 940.6 hPa | - | - | - | - |
| 1777732880 | 13.33° C | 52% | 940.6 hPa | - | - | - | - |
| 1777731680 | 13.33° C | 53% | 940.7 hPa | - | - | - | - |
| 1777730479 | 13.33° C | 54% | 940.8 hPa | - | - | - | - |
| 1777729278 | 11.11° C | 59% | 941 hPa | - | - | - | - |
| 1777728077 | 12.22° C | 58% | 941.2 hPa | - | - | - | - |
| 1777725676 | 13.89° C | 51% | 941.3 hPa | - | - | - | - |
| 1777724475 | 14.44° C | 50% | 941.3 hPa | - | - | - | - |
| 1777723274 | 13.89° C | 49% | 941.5 hPa | - | - | - | - |
| 1777722073 | 12.78° C | 52% | 941.6 hPa | - | - | - | - |
| 1777720873 | 12.78° C | 51% | 942 hPa | - | - | - | - |
| 1777719672 | 11.67° C | 53% | 942.1 hPa | - | - | - | - |
| 1777718471 | 14.44° C | 50% | 942.3 hPa | - | - | - | - |
* Rain since midnight (hover to see other rain measurements)
** Current wind speed in m/s (hover to see current wind gust speed)